Terminal Aerodrome Forecast
Issued by NWS Charleston, WV

Current Version | Previous Version | Text Only | Print | Product List | Glossary Off
Versions: 1 2 3 4 5 6 7 8 9 10 11 12 13 14 15 16 17 18 19 20 21 22 23

000
FTUS41 KRLX 251737
TAFCRW
TAF
KCRW 251737Z 2518/2618 21009KT 6SM -RA SCT018 BKN026 OVC035
     FM252000 21008KT 3SM -SHRA OVC012
     FM260200 26011G17KT P6SM OVC008
     FM260700 26012G20KT P6SM OVC014
     FM261700 26009KT P6SM SCT050=

USA.gov is the U.S. government's official web portal to all federal, state and local government web resources and services.